Dundee, MI (48131)

4:30 PM EDT on July 30, 2016 (GMT -0400)
Dundee, MI | | Change Station

Elev 669 ft 41.94 °N, 83.65 °W | Updated 40 seconds ago

Mostly Cloudy
Mostly Cloudy
80.6 °F
Feels Like 85 °F
N
0.0
Wind Variable Wind from WSW

Today
High -- | Low -- °F
--% Chance of Precip.
Yesterday
High -- | Low -- °F
Precip. -- in
Pressure 29.94 in
Visibility 10.0 miles
Clouds Mostly Cloudy 1900 ft
Mostly Cloudy 2400 ft
Mostly Cloudy 3000 ft
Heat Index 85 °F
Dew Point 72 °F
Humidity 74%
Rainfall 0.00 in
Snow Depth Not available.
6:26 AM 8:54 PM
Waning Crescent, 11% visible
METAR KTTF 302014Z AUTO 10006KT 10SM BKN019 BKN024 BKN030 25/22 A2994 RMK AO2 T02520215
Pressure 29.94 in
Visibility 10.0 miles
Clouds Mostly Cloudy 1900 ft
Mostly Cloudy 2400 ft
Mostly Cloudy 3000 ft
Heat Index 85 °F
Dew Point 72 °F
Humidity 74%
Rainfall 0.00 in
Snow Depth Not available.
6:26 AM 8:54 PM
Waning Crescent, 11% visible
METAR KTTF 302014Z AUTO 10006KT 10SM BKN019 BKN024 BKN030 25/22 A2994 RMK AO2 T02520215

10-Day Weather Forecast

Almanac

Astronomy

Jul. 30, 2016 Rise Set
Actual Time
Civil Twilight
Nautical Twilight
Astronomical Twilight
Moon
Length of Visible Light
Length of Day
Tomorrow will be .
, % of the Moon is Illuminated

Today's Extremes

State Highs State Lows

Community

WunderPhotos

Upload Photos

1,928,630 photos uploaded!

WunderBlog® & News

Nearby

Air Quality

  Air Quality AQ Index Pollutant
Not available.

Snow Depth

Station Depth Elevation

Earthquake Activity

City Distance Mag. Time & Date
Minimum magnitude displayed is 2.5.

Coastal Water Temperatures

Place Temperature

Stations

Nearby Weather Stations

Station Location Temp. Windchill Dew Point Humidity Wind Precip. Elev Updated Type
                   

Watches & Warnings

There are currently no watches in effect.